Time;durP1;ratioP1;P1;durP2;ratioP2;P2;SDS_P1;SDS_P2;PMS_P1;PMS_P2;Temp;Humidity;BMP_temperature;BMP_pressure;BME280_temperature;BME280_humidity;BME280_pressure;Samples;Min_cycle;Max_cycle;Signal;HPM_P1;HPM_P2
2021/04/04 00:00:51;;;;;;;11.57;1.63;;;12.70;55.30;;;;;;5078341;28;20056;-72
2021/04/04 00:03:16;;;;;;;6.15;1.23;;;12.70;55.50;;;;;;5078159;28;20040;-72
2021/04/04 00:05:42;;;;;;;8.93;1.90;;;12.70;55.90;;;;;;5077754;28;20047;-72
2021/04/04 00:08:08;;;;;;;9.10;1.60;;;12.70;55.90;;;;;;5078023;28;20067;-72
2021/04/04 00:10:34;;;;;;;5.70;1.55;;;12.70;55.80;;;;;;5077181;28;20432;-72
2021/04/04 00:13:00;;;;;;;10.77;1.65;;;12.70;56.00;;;;;;5077747;28;20047;-72
2021/04/04 00:15:26;;;;;;;8.88;1.70;;;12.70;56.00;;;;;;5077308;28;20040;-72
2021/04/04 00:17:51;;;;;;;7.47;1.63;;;12.70;56.00;;;;;;5077712;28;20047;-72
2021/04/04 00:20:18;;;;;;;6.40;1.60;;;12.70;56.10;;;;;;5077899;28;20036;-72
2021/04/04 00:22:46;;;;;;;8.32;2.25;;;12.70;56.20;;;;;;5077415;28;20041;-72
2021/04/04 00:25:14;;;;;;;8.50;1.30;;;12.70;56.30;;;;;;5077782;28;20110;-72
2021/04/04 00:27:40;;;;;;;10.60;1.98;;;12.70;56.10;;;;;;5077498;28;20036;-72
2021/04/04 00:30:11;;;;;;;6.75;1.30;;;12.70;56.10;;;;;;5077664;28;20051;-72
2021/04/04 00:32:37;;;;;;;9.32;1.90;;;12.60;56.20;;;;;;5077180;28;20059;-72
2021/04/04 00:35:10;;;;;;;8.90;1.73;;;12.60;56.00;;;;;;5077069;28;20366;-72
2021/04/04 00:37:37;;;;;;;8.25;1.75;;;12.60;56.00;;;;;;5078002;28;20060;-72
2021/04/04 00:40:14;;;;;;;7.47;1.52;;;12.60;55.80;;;;;;5077215;28;20041;-71
2021/04/04 00:42:39;;;;;;;10.90;1.92;;;12.60;55.80;;;;;;5077227;28;20043;-72
2021/04/04 00:45:15;;;;;;;5.63;1.23;;;12.50;56.10;;;;;;5077648;28;20044;-72
2021/04/04 00:47:41;;;;;;;4.80;1.17;;;12.50;56.20;;;;;;5077072;28;20044;-72
2021/04/04 00:50:10;;;;;;;5.63;1.42;;;12.60;56.40;;;;;;5076755;28;20049;-71
2021/04/04 00:52:37;;;;;;;5.65;1.25;;;12.60;56.40;;;;;;5077045;28;20090;-72
2021/04/04 00:55:04;;;;;;;7.50;1.33;;;12.60;56.40;;;;;;5076494;28;20051;-72
2021/04/04 00:57:32;;;;;;;5.28;1.23;;;12.50;56.50;;;;;;5076557;28;20351;-71
2021/04/04 00:59:59;;;;;;;10.10;1.38;;;12.50;56.50;;;;;;5058929;28;20051;-72
2021/04/04 01:02:25;;;;;;;9.15;1.75;;;12.60;56.50;;;;;;5076595;28;20360;-72
2021/04/04 01:04:53;;;;;;;5.60;1.10;;;12.60;56.40;;;;;;5076378;28;20036;-72
2021/04/04 01:07:18;;;;;;;8.93;1.50;;;12.60;56.50;;;;;;5076593;28;20424;-72
2021/04/04 01:09:44;;;;;;;5.80;0.93;;;12.50;56.70;;;;;;5076105;28;20040;-71
2021/04/04 01:12:38;;;;;;;6.50;1.38;;;12.60;56.70;;;;;;5077607;28;20044;-72
2021/04/04 01:15:13;;;;;;;4.75;0.88;;;12.50;56.70;;;;;;5076862;28;20040;-72
2021/04/04 01:17:42;;;;;;;6.28;1.17;;;12.50;56.50;;;;;;5076584;28;20154;-72
2021/04/04 01:20:18;;;;;;;7.88;1.40;;;12.50;56.70;;;;;;5077206;28;20040;-72
2021/04/04 01:23:03;;;;;;;8.13;1.25;;;12.50;56.80;;;;;;5076490;28;20052;-72
2021/04/04 01:25:47;;;;;;;5.30;1.10;;;12.50;56.70;;;;;;5076915;28;20293;-72
2021/04/04 01:28:20;;;;;;;4.82;0.80;;;12.60;55.90;;;;;;5076906;28;20072;-72
2021/04/04 01:30:48;;;;;;;4.72;1.00;;;12.50;56.70;;;;;;5076360;28;20047;-72
2021/04/04 01:33:16;;;;;;;6.35;0.95;;;12.40;56.80;;;;;;5076401;28;20119;-72
2021/04/04 01:35:52;;;;;;;4.68;1.30;;;12.40;56.40;;;;;;5076257;28;20448;-72
2021/04/04 01:38:22;;;;;;;7.57;1.45;;;12.40;56.50;;;;;;5076017;28;20044;-73
2021/04/04 01:40:52;;;;;;;7.50;1.65;;;12.40;57.00;;;;;;5075899;28;20079;-72
2021/04/04 01:43:18;;;;;;;6.35;1.27;;;12.40;56.70;;;;;;5076363;28;20060;-71
2021/04/04 01:45:45;;;;;;;6.80;1.25;;;12.40;56.90;;;;;;5075680;28;20048;-72
2021/04/04 01:48:12;;;;;;;5.78;1.58;;;12.40;57.00;;;;;;5075695;28;20040;-72
2021/04/04 01:50:43;;;;;;;6.22;1.42;;;12.40;56.90;;;;;;5075450;28;20113;-72
2021/04/04 01:53:11;;;;;;;7.65;1.13;;;12.40;56.60;;;;;;5075888;28;20055;-71
2021/04/04 01:55:38;;;;;;;3.55;1.17;;;12.40;56.40;;;;;;5075140;28;20079;-71
2021/04/04 01:58:07;;;;;;;3.78;1.02;;;12.40;56.40;;;;;;5075944;28;20040;-71
2021/04/04 02:00:33;;;;;;;6.18;1.30;;;12.40;56.70;;;;;;5075214;28;20355;-71
2021/04/04 02:03:01;;;;;;;5.65;1.48;;;12.40;56.30;;;;;;5058567;28;20048;-71
2021/04/04 02:05:27;;;;;;;5.30;1.27;;;12.40;56.00;;;;;;5076225;28;20089;-72
2021/04/04 02:07:54;;;;;;;6.57;1.15;;;12.30;55.90;;;;;;5076147;28;20059;-72
2021/04/04 02:10:26;;;;;;;6.15;1.50;;;12.30;55.90;;;;;;5075813;28;20048;-72
2021/04/04 02:12:54;;;;;;;6.57;1.45;;;12.30;55.60;;;;;;5075159;28;20040;-72
2021/04/04 02:15:21;;;;;;;8.77;2.03;;;12.30;55.50;;;;;;5075359;28;20040;-72
2021/04/04 02:17:48;;;;;;;4.60;1.20;;;12.30;55.90;;;;;;5075538;28;20370;-72
2021/04/04 02:20:21;;;;;;;8.50;1.63;;;12.30;56.00;;;;;;5076046;28;20118;-71
2021/04/04 02:22:48;;;;;;;7.70;1.67;;;12.30;55.80;;;;;;5058179;28;20040;-72
2021/04/04 02:25:16;;;;;;;7.43;1.70;;;12.30;55.90;;;;;;5075158;28;20040;-72
2021/04/04 02:27:46;;;;;;;5.00;1.33;;;12.30;56.30;;;;;;5075885;28;20098;-72
2021/04/04 02:30:15;;;;;;;5.40;1.80;;;12.30;56.10;;;;;;5075392;28;20396;-72
2021/04/04 02:32:56;;;;;;;8.63;1.75;;;12.30;55.90;;;;;;5075381;28;20036;-72
2021/04/04 02:35:29;;;;;;;6.00;1.73;;;12.30;55.90;;;;;;5074830;28;20098;-72
2021/04/04 02:37:58;;;;;;;6.57;1.75;;;12.30;56.10;;;;;;5075330;28;20102;-71
2021/04/04 02:40:26;;;;;;;5.15;1.75;;;12.30;55.90;;;;;;5075283;28;20394;-72
2021/04/04 02:42:54;;;;;;;5.57;2.00;;;12.20;55.80;;;;;;5075251;28;20101;-71
2021/04/04 02:45:23;;;;;;;9.32;2.33;;;12.30;55.90;;;;;;5075213;28;20048;-71
2021/04/04 02:47:56;;;;;;;6.57;2.00;;;12.20;56.40;;;;;;5074664;28;20364;-72
2021/04/04 02:50:24;;;;;;;6.30;2.23;;;12.20;55.60;;;;;;5075574;28;20086;-71
2021/04/04 02:52:53;;;;;;;11.60;2.72;;;12.20;55.80;;;;;;5075112;28;20106;-72
2021/04/04 02:55:21;;;;;;;4.13;1.80;;;12.20;56.10;;;;;;5075191;28;20040;-71
2021/04/04 02:57:49;;;;;;;6.90;2.33;;;12.20;56.00;;;;;;5077833;28;20052;-71
2021/04/04 03:00:17;;;;;;;6.20;2.72;;;12.20;56.00;;;;;;5079190;28;20055;-71
2021/04/04 03:02:43;;;;;;;7.57;2.63;;;12.10;56.00;;;;;;5079085;28;20166;-71
2021/04/04 03:05:10;;;;;;;8.45;3.00;;;12.20;56.00;;;;;;5078893;28;20420;-71
2021/04/04 03:07:39;;;;;;;5.50;2.30;;;12.20;56.10;;;;;;5079240;28;20040;-71
2021/04/04 03:10:06;;;;;;;8.55;2.70;;;12.20;56.10;;;;;;5078780;28;20443;-72
2021/04/04 03:12:34;;;;;;;6.38;2.45;;;12.20;56.10;;;;;;5078321;28;20359;-72
2021/04/04 03:15:04;;;;;;;10.50;2.88;;;12.20;56.40;;;;;;5078589;28;20456;-72
2021/04/04 03:17:30;;;;;;;6.90;2.72;;;12.10;55.80;;;;;;5078834;28;20419;-71
2021/04/04 03:19:59;;;;;;;7.32;2.92;;;12.20;56.20;;;;;;5078754;28;20044;-72
2021/04/04 03:22:27;;;;;;;7.55;3.00;;;12.10;56.00;;;;;;5078738;28;20105;-71
2021/04/04 03:24:55;;;;;;;5.43;2.40;;;12.10;56.30;;;;;;5078682;28;20445;-72
2021/04/04 03:27:21;;;;;;;8.40;3.65;;;12.10;56.20;;;;;;5078809;28;20033;-71
2021/04/04 03:29:49;;;;;;;8.30;3.00;;;12.10;56.00;;;;;;5078984;28;20049;-71
2021/04/04 03:32:16;;;;;;;8.95;3.35;;;12.10;56.30;;;;;;5078433;28;20076;-72
2021/04/04 03:34:42;;;;;;;8.13;3.55;;;12.10;56.30;;;;;;5078511;28;20040;-71
2021/04/04 03:37:08;;;;;;;7.78;3.70;;;12.10;56.30;;;;;;5078350;28;20044;-71
2021/04/04 03:39:34;;;;;;;5.72;3.10;;;12.10;56.30;;;;;;5078337;28;20036;-71
2021/04/04 03:42:02;;;;;;;8.48;3.25;;;12.00;56.20;;;;;;5078421;28;20462;-72
2021/04/04 03:44:32;;;;;;;9.00;4.07;;;12.00;56.30;;;;;;5078091;28;20044;-71
2021/04/04 03:47:00;;;;;;;8.95;3.72;;;12.00;56.20;;;;;;5078028;28;20450;-72
2021/04/04 03:49:27;;;;;;;7.65;3.78;;;12.00;56.20;;;;;;5078151;28;20048;-71
2021/04/04 03:51:55;;;;;;;7.63;3.20;;;12.00;56.20;;;;;;5078184;28;20064;-71
2021/04/04 03:54:22;;;;;;;8.20;3.22;;;12.00;56.20;;;;;;5078526;28;20352;-71
2021/04/04 03:56:49;;;;;;;8.30;3.30;;;12.00;56.20;;;;;;5078207;28;20047;-71
2021/04/04 03:59:17;;;;;;;8.43;3.80;;;12.00;55.90;;;;;;5077606;28;20427;-71
2021/04/04 04:01:47;;;;;;;7.93;3.50;;;12.00;56.20;;;;;;5077791;28;20166;-71
2021/04/04 04:04:14;;;;;;;8.45;3.72;;;12.00;56.20;;;;;;5078107;28;20110;-71
2021/04/04 04:06:45;;;;;;;9.05;3.83;;;11.90;56.20;;;;;;5078451;28;20044;-71
2021/04/04 04:09:17;;;;;;;6.00;3.08;;;12.00;56.60;;;;;;5077421;28;20080;-71
2021/04/04 04:11:46;;;;;;;9.15;4.10;;;12.00;56.50;;;;;;5078039;28;20048;-71
2021/04/04 04:14:15;;;;;;;7.68;4.05;;;12.00;56.50;;;;;;5077788;28;20044;-71
2021/04/04 04:16:41;;;;;;;8.63;3.97;;;12.00;56.20;;;;;;5078442;28;20055;-71
2021/04/04 04:19:08;;;;;;;6.93;3.92;;;12.00;56.50;;;;;;5077782;28;20045;-71
2021/04/04 04:21:36;;;;;;;9.73;4.25;;;11.90;56.60;;;;;;5077181;28;20043;-72
2021/04/04 04:24:05;;;;;;;7.40;4.10;;;11.90;56.50;;;;;;5078033;28;20051;-71
2021/04/04 04:26:33;;;;;;;9.18;4.63;;;11.90;56.50;;;;;;5077594;28;20060;-71
2021/04/04 04:29:00;;;;;;;10.05;4.72;;;11.90;56.50;;;;;;5077612;28;20042;-71
2021/04/04 04:31:39;;;;;;;9.02;4.28;;;11.90;56.40;;;;;;5077659;28;20056;-72
2021/04/04 04:34:06;;;;;;;10.32;3.97;;;11.90;55.80;;;;;;5077433;28;20509;-71
2021/04/04 04:36:33;;;;;;;10.95;4.80;;;11.90;56.40;;;;;;5077651;28;20048;-71
2021/04/04 04:39:00;;;;;;;8.65;4.68;;;11.80;56.50;;;;;;5077157;28;20037;-71
2021/04/04 04:41:26;;;;;;;6.72;3.97;;;11.80;56.40;;;;;;5077316;28;20094;-71
2021/04/04 04:43:58;;;;;;;7.85;4.10;;;11.80;57.30;;;;;;5077381;28;20044;-71
2021/04/04 04:46:24;;;;;;;10.40;4.60;;;11.80;56.70;;;;;;5077153;28;20098;-71
2021/04/04 04:48:52;;;;;;;9.00;4.93;;;11.80;56.60;;;;;;5077470;28;20131;-72
2021/04/04 04:51:19;;;;;;;9.05;5.07;;;11.90;56.80;;;;;;5076895;28;20044;-71
2021/04/04 04:53:48;;;;;;;9.35;4.68;;;11.90;56.70;;;;;;5077487;28;20045;-71
2021/04/04 04:56:15;;;;;;;8.05;4.18;;;11.90;56.50;;;;;;5077708;28;20037;-71
2021/04/04 04:58:42;;;;;;;11.20;4.45;;;11.80;56.50;;;;;;5078291;28;20097;-71
2021/04/04 05:01:17;;;;;;;7.70;4.50;;;11.80;56.90;;;;;;5102839;28;20032;-72
2021/04/04 05:03:43;;;;;;;9.05;4.55;;;11.80;56.90;;;;;;5117163;28;20036;-71
2021/04/04 05:06:11;;;;;;;9.85;5.35;;;11.80;56.60;;;;;;5094295;28;20044;-71
2021/04/04 05:08:41;;;;;;;9.52;4.28;;;11.80;56.90;;;;;;5089812;28;20060;-72
2021/04/04 05:11:09;;;;;;;7.60;4.80;;;11.90;57.50;;;;;;5096726;28;20040;-74
2021/04/04 05:13:38;;;;;;;9.38;4.95;;;12.10;57.30;;;;;;5095990;28;20077;-75
2021/04/04 05:16:15;;;;;;;8.63;4.30;;;12.20;57.70;;;;;;5096643;28;20040;-70
2021/04/04 05:18:49;;;;;;;9.25;4.88;;;12.40;58.30;;;;;;5095552;28;20061;-71
2021/04/04 05:21:27;;;;;;;7.18;4.50;;;12.60;57.70;;;;;;5096920;28;20044;-71
2021/04/04 05:24:00;;;;;;;7.80;3.67;;;12.80;56.70;;;;;;5097232;28;20040;-71
2021/04/04 05:26:27;;;;;;;8.48;3.53;;;13.10;56.30;;;;;;5095525;28;20051;-71
2021/04/04 05:28:54;;;;;;;12.27;3.60;;;13.30;56.20;;;;;;5095049;28;20054;-74
2021/04/04 05:31:21;;;;;;;10.32;4.47;;;13.70;56.00;;;;;;5096425;28;20032;-73
2021/04/04 05:33:48;;;;;;;9.82;3.65;;;14.00;56.40;;;;;;5096018;28;20059;-75
2021/04/04 05:36:14;;;;;;;9.40;4.03;;;14.30;55.50;;;;;;5097115;28;20051;-75
2021/04/04 05:38:40;;;;;;;9.30;4.20;;;14.50;55.50;;;;;;5077780;28;20036;-73
2021/04/04 05:41:06;;;;;;;16.27;4.80;;;14.80;55.70;;;;;;5090505;28;20058;-74
2021/04/04 05:43:40;;;;;;;12.55;4.57;;;15.10;56.20;;;;;;5076204;28;20044;-75
2021/04/04 05:46:26;;;;;;;9.30;4.32;;;15.30;56.80;;;;;;5083465;28;20036;-76
2021/04/04 05:49:10;;;;;;;15.80;4.05;;;15.40;56.70;;;;;;5090938;28;20043;-75
2021/04/04 05:51:54;;;;;;;15.18;4.47;;;15.50;56.70;;;;;;5076387;28;20424;-76
2021/04/04 05:54:50;;;;;;;11.57;4.55;;;15.60;56.90;;;;;;5085183;28;20039;-78
2021/04/04 05:57:23;;;;;;;10.48;4.40;;;15.70;56.90;;;;;;5090006;28;20040;-77
2021/04/04 05:59:56;;;;;;;15.55;4.22;;;15.70;57.20;;;;;;5093557;28;20073;-76
2021/04/04 06:03:10;;;;;;;12.38;4.35;;;15.80;58.00;;;;;;5094999;28;20401;-72
2021/04/04 06:05:59;;;;;;;8.98;3.88;;;15.80;57.70;;;;;;5031903;28;20359;-75
2021/04/04 06:08:48;;;;;;;8.48;4.13;;;16.00;57.70;;;;;;5092101;28;20514;-75
2021/04/04 06:11:37;;;;;;;11.13;3.83;;;16.00;57.50;;;;;;5094728;28;20071;-76
2021/04/04 06:14:07;;;;;;;10.50;4.22;;;16.20;57.70;;;;;;5093735;28;20040;-76
2021/04/04 06:16:55;;;;;;;10.02;3.83;;;16.40;57.10;;;;;;5092288;28;20109;-75
2021/04/04 06:19:45;;;;;;;7.07;3.05;;;16.50;56.90;;;;;;5076792;28;20090;-75
2021/04/04 06:22:17;;;;;;;9.88;3.95;;;16.70;56.70;;;;;;5094439;28;20452;-77
2021/04/04 06:25:08;;;;;;;5.63;3.50;;;16.70;56.80;;;;;;5089080;28;20127;-77
2021/04/04 06:27:51;;;;;;;9.50;4.20;;;16.80;56.00;;;;;;5089912;28;20123;-76
2021/04/04 06:30:45;;;;;;;10.13;4.13;;;16.90;55.80;;;;;;5074956;28;20119;-77
2021/04/04 06:33:20;;;;;;;7.18;3.25;;;16.90;55.70;;;;;;5090307;28;20118;-78
2021/04/04 06:36:06;;;;;;;9.48;3.90;;;17.00;55.40;;;;;;5092678;28;20481;-77
2021/04/04 06:39:02;;;;;;;11.52;4.00;;;17.00;54.90;;;;;;5093500;28;20048;-79
2021/04/04 06:41:41;;;;;;;9.80;3.72;;;17.00;55.10;;;;;;5091097;28;20050;-74
2021/04/04 06:44:20;;;;;;;10.43;3.17;;;17.10;55.20;;;;;;5093635;28;20047;-77
2021/04/04 06:47:06;;;;;;;13.45;3.63;;;17.20;55.20;;;;;;5093591;28;20055;-75
2021/04/04 06:49:50;;;;;;;9.10;3.42;;;17.20;55.10;;;;;;5090223;28;20722;-76
2021/04/04 06:52:57;;;;;;;6.78;3.17;;;17.20;54.90;;;;;;5078661;28;20037;-73
2021/04/04 06:55:36;;;;;;;7.85;3.10;;;17.30;54.80;;;;;;5083203;28;20443;-75
2021/04/04 06:58:16;;;;;;;9.85;4.25;;;17.50;54.70;;;;;;5088610;28;20085;-75
2021/04/04 07:01:01;;;;;;;8.90;3.15;;;17.50;54.70;;;;;;5094640;28;20119;-75
2021/04/04 07:03:34;;;;;;;8.55;3.47;;;17.60;54.70;;;;;;5080139;28;20032;-73
2021/04/04 07:06:20;;;;;;;13.15;3.50;;;17.60;54.60;;;;;;5089069;28;20040;-76
2021/04/04 07:08:49;;;;;;;11.63;3.70;;;17.50;51.20;;;;;;5090620;28;20355;-77
2021/04/04 07:11:33;;;;;;;17.23;3.80;;;17.50;54.00;;;;;;5115402;28;20046;-73
2021/04/04 07:14:27;;;;;;;8.32;3.58;;;17.50;53.90;;;;;;5094543;28;20051;-73
2021/04/04 07:17:11;;;;;;;11.02;4.15;;;17.50;54.00;;;;;;5076336;28;20036;-75
2021/04/04 07:19:56;;;;;;;19.05;4.50;;;17.60;54.10;;;;;;5094926;28;20047;-75
2021/04/04 07:22:55;;;;;;;18.35;4.18;;;17.60;54.30;;;;;;5077876;28;20351;-74
2021/04/04 07:26:14;;;;;;;22.42;4.88;;;17.60;54.50;;;;;;5075264;28;20105;-75
2021/04/04 07:28:48;;;;;;;17.02;3.70;;;17.60;54.50;;;;;;5013116;28;20122;-75
2021/04/04 07:31:17;;;;;;;18.02;3.80;;;17.60;54.20;;;;;;5075798;28;20040;-75
2021/04/04 07:34:03;;;;;;;15.50;3.25;;;17.60;53.40;;;;;;5081486;28;20040;-75
2021/04/04 07:36:57;;;;;;;12.23;3.33;;;17.60;53.30;;;;;;5094642;28;20572;-74
2021/04/04 07:39:49;;;;;;;10.75;3.25;;;17.60;53.60;;;;;;5074367;28;20047;-76
2021/04/04 07:42:24;;;;;;;17.55;3.47;;;17.60;53.60;;;;;;5075967;28;20052;-77
2021/04/04 07:44:55;;;;;;;15.57;3.33;;;17.70;53.60;;;;;;5093948;28;20040;-74
2021/04/04 07:48:06;;;;;;;10.60;2.95;;;17.60;53.40;;;;;;5098041;28;20035;-74
2021/04/04 07:50:42;;;;;;;12.90;3.17;;;17.60;53.40;;;;;;5061271;28;20451;-73
2021/04/04 07:53:17;;;;;;;16.00;3.75;;;17.50;53.80;;;;;;5078432;28;20067;-73
2021/04/04 07:56:02;;;;;;;12.25;3.10;;;17.40;54.10;;;;;;5098237;28;20040;-73
2021/04/04 07:58:52;;;;;;;10.63;2.55;;;17.40;54.50;;;;;;5091798;28;20449;-74
2021/04/04 08:01:24;;;;;;;16.08;3.40;;;17.30;54.60;;;;;;5081798;28;20051;-75
2021/04/04 08:04:16;;;;;;;13.38;2.97;;;17.30;54.70;;;;;;5084559;28;20097;-72
2021/04/04 08:06:48;;;;;;;12.05;2.65;;;17.20;54.70;;;;;;5070926;28;20052;-76
2021/04/04 08:09:25;;;;;;;11.85;3.28;;;17.10;55.20;;;;;;5077652;28;20067;-73
2021/04/04 08:12:01;;;;;;;10.80;3.05;;;17.10;55.40;;;;;;5085528;28;20043;-73
2021/04/04 08:14:52;;;;;;;13.65;3.20;;;17.00;55.40;;;;;;5097166;28;20047;-71
2021/04/04 08:17:17;;;;;;;13.45;3.03;;;17.00;55.40;;;;;;5079821;28;20154;-76
2021/04/04 08:19:49;;;;;;;15.15;3.00;;;16.90;56.40;;;;;;5097723;28;20056;-70
2021/04/04 08:22:22;;;;;;;18.48;2.83;;;16.80;55.70;;;;;;5095670;28;20046;-71
2021/04/04 08:24:53;;;;;;;9.73;3.33;;;16.80;55.70;;;;;;5096808;28;20032;-72
2021/04/04 08:27:47;;;;;;;16.73;3.10;;;16.70;55.60;;;;;;5095256;28;20096;-73
2021/04/04 08:30:51;;;;;;;12.00;3.50;;;16.70;55.80;;;;;;5078818;28;20064;-74
2021/04/04 08:33:22;;;;;;;8.10;2.65;;;16.60;56.40;;;;;;5014679;28;20049;-77
2021/04/04 08:35:52;;;;;;;13.15;3.30;;;16.60;56.90;;;;;;5078704;28;20060;-75
2021/04/04 08:38:28;;;;;;;9.30;2.83;;;16.50;56.00;;;;;;5092106;28;20360;-76
2021/04/04 08:40:59;;;;;;;11.70;3.05;;;16.50;55.90;;;;;;5097998;28;20032;-77
2021/04/04 08:43:26;;;;;;;9.57;2.30;;;16.50;55.60;;;;;;5095417;28;20044;-76
2021/04/04 08:46:18;;;;;;;11.38;2.80;;;16.40;55.60;;;;;;5095910;28;20109;-74
2021/04/04 08:48:44;;;;;;;12.75;2.28;;;16.40;55.30;;;;;;5097152;28;20339;-75
2021/04/04 08:51:13;;;;;;;12.43;2.88;;;16.30;55.50;;;;;;5094767;28;20056;-79
2021/04/04 08:53:43;;;;;;;8.85;2.35;;;16.30;55.50;;;;;;5095488;28;20085;-74
2021/04/04 08:56:09;;;;;;;13.27;2.47;;;16.20;55.50;;;;;;5096216;28;20031;-74
2021/04/04 08:58:45;;;;;;;10.45;2.47;;;16.30;55.60;;;;;;5095736;28;20070;-76
2021/04/04 09:01:16;;;;;;;9.73;2.38;;;16.20;55.50;;;;;;5093255;28;20430;-75
2021/04/04 09:03:49;;;;;;;8.48;2.33;;;16.20;55.50;;;;;;5095345;28;20305;-76
2021/04/04 09:06:16;;;;;;;10.43;2.60;;;16.20;55.40;;;;;;5095029;28;20174;-76
2021/04/04 09:08:42;;;;;;;6.35;2.00;;;16.10;55.60;;;;;;5094253;28;20074;-75
2021/04/04 09:11:12;;;;;;;7.10;2.08;;;16.10;55.70;;;;;;5096970;28;20036;-74
2021/04/04 09:13:39;;;;;;;6.82;2.15;;;16.00;55.50;;;;;;5095809;28;20048;-75
2021/04/04 09:16:15;;;;;;;7.25;1.85;;;16.00;55.60;;;;;;5096983;28;20048;-75
2021/04/04 09:18:49;;;;;;;7.00;1.83;;;16.00;55.40;;;;;;5095363;28;20040;-77
2021/04/04 09:21:20;;;;;;;8.10;2.03;;;16.00;55.50;;;;;;5094420;28;20113;-75
2021/04/04 09:23:48;;;;;;;6.47;1.85;;;15.90;55.60;;;;;;5095774;28;20032;-75
2021/04/04 09:26:23;;;;;;;6.30;1.63;;;15.90;55.60;;;;;;5095282;28;20104;-73
2021/04/04 09:28:51;;;;;;;6.18;1.98;;;15.90;55.50;;;;;;5076572;28;20066;-76
2021/04/04 09:31:22;;;;;;;7.65;2.20;;;15.90;55.70;;;;;;5095033;28;20039;-74
2021/04/04 09:34:07;;;;;;;6.43;1.65;;;15.90;55.70;;;;;;5096121;28;20047;-74
2021/04/04 09:36:50;;;;;;;5.78;1.60;;;15.90;55.40;;;;;;5094399;28;20048;-76
2021/04/04 09:39:39;;;;;;;9.98;1.73;;;15.80;55.60;;;;;;5078532;28;20052;-76
2021/04/04 09:42:05;;;;;;;7.72;1.52;;;15.80;55.40;;;;;;5094501;28;20346;-74
2021/04/04 09:44:33;;;;;;;6.97;1.90;;;15.70;55.80;;;;;;5095592;28;20392;-74
2021/04/04 09:47:00;;;;;;;6.57;1.80;;;15.70;55.80;;;;;;5096184;28;20036;-76
2021/04/04 09:49:37;;;;;;;5.63;1.77;;;15.70;55.90;;;;;;5095765;28;20135;-75
2021/04/04 09:52:17;;;;;;;5.25;1.70;;;15.70;55.70;;;;;;5078306;28;20070;-74
2021/04/04 09:55:09;;;;;;;4.32;1.60;;;15.70;55.80;;;;;;5096154;28;20036;-76
2021/04/04 09:57:52;;;;;;;5.75;1.58;;;15.70;55.60;;;;;;5093641;28;20039;-76
2021/04/04 10:00:35;;;;;;;6.82;1.90;;;15.60;55.70;;;;;;5091407;28;20111;-75
2021/04/04 10:03:29;;;;;;;5.38;1.52;;;15.70;56.00;;;;;;5095907;28;20066;-75
2021/04/04 10:05:54;;;;;;;7.28;1.63;;;15.60;55.50;;;;;;5093004;28;20024;-75
2021/04/04 10:08:23;;;;;;;6.07;1.80;;;15.60;55.90;;;;;;5095378;28;20043;-75
2021/04/04 10:10:49;;;;;;;6.38;2.17;;;15.60;55.90;;;;;;5095506;28;20439;-76
2021/04/04 10:13:16;;;;;;;5.10;1.55;;;15.60;56.00;;;;;;5077040;28;20047;-75
2021/04/04 10:15:48;;;;;;;5.35;2.00;;;15.60;56.10;;;;;;5093824;28;20519;-76
2021/04/04 10:18:15;;;;;;;5.53;1.85;;;15.60;55.90;;;;;;5094752;28;20145;-76
2021/04/04 10:20:50;;;;;;;7.15;1.70;;;15.60;56.10;;;;;;5095706;28;20043;-75
2021/04/04 10:23:16;;;;;;;5.32;1.50;;;15.60;55.90;;;;;;5088921;28;20380;-73
2021/04/04 10:26:07;;;;;;;5.97;1.40;;;15.60;56.20;;;;;;5092090;28;20052;-76
2021/04/04 10:28:40;;;;;;;4.90;2.05;;;15.60;56.10;;;;;;5080026;28;20059;-75
2021/04/04 10:31:06;;;;;;;7.80;1.90;;;15.60;55.50;;;;;;5093812;28;20027;-73
2021/04/04 10:33:32;;;;;;;9.48;2.20;;;15.50;55.90;;;;;;5093037;28;20504;-74
2021/04/04 10:36:29;;;;;;;11.63;2.13;;;15.30;55.50;;;;;;5094506;28;20499;-72
2021/04/04 10:38:56;;;;;;;7.00;1.60;;;15.30;56.30;;;;;;5092735;28;20063;-73
2021/04/04 10:41:35;;;;;;;18.45;2.47;;;15.30;55.90;;;;;;5094920;28;20427;-73
2021/04/04 10:44:01;;;;;;;13.75;2.60;;;15.40;57.50;;;;;;5092385;28;20372;-72
2021/04/04 10:46:33;;;;;;;10.18;1.95;;;15.50;59.00;;;;;;5095005;28;20098;-74
2021/04/04 10:49:00;;;;;;;11.80;2.35;;;15.60;60.80;;;;;;5093856;28;20040;-72
2021/04/04 10:51:27;;;;;;;16.55;2.53;;;15.60;61.00;;;;;;5095669;28;20075;-74
2021/04/04 10:53:54;;;;;;;19.52;3.25;;;15.60;59.20;;;;;;5091034;28;20040;-71
2021/04/04 10:56:20;;;;;;;13.02;2.50;;;15.70;60.30;;;;;;5094633;28;20115;-72
2021/04/04 10:58:48;;;;;;;16.25;2.58;;;15.70;59.90;;;;;;5091860;28;20119;-72
2021/04/04 11:01:14;;;;;;;12.27;2.42;;;15.80;59.10;;;;;;5094886;28;20040;-73
2021/04/04 11:03:41;;;;;;;9.73;1.88;;;15.90;58.80;;;;;;5095387;28;20107;-73
2021/04/04 11:06:08;;;;;;;8.60;2.30;;;16.00;58.60;;;;;;5093990;28;20028;-73
2021/04/04 11:08:34;;;;;;;14.90;2.30;;;16.20;58.50;;;;;;5087746;28;20047;-73
2021/04/04 11:11:01;;;;;;;14.75;2.20;;;16.30;58.60;;;;;;5093416;28;20036;-74
2021/04/04 11:13:27;;;;;;;15.25;1.77;;;16.40;58.60;;;;;;5094304;28;20040;-72
2021/04/04 11:16:00;;;;;;;11.88;2.22;;;16.50;58.50;;;;;;5094106;28;20458;-71
2021/04/04 11:18:48;;;;;;;10.48;1.90;;;16.50;58.40;;;;;;5088438;28;20036;-71
2021/04/04 11:21:27;;;;;;;7.68;1.88;;;16.60;59.20;;;;;;5080602;28;20040;-71
2021/04/04 11:23:53;;;;;;;9.90;1.70;;;16.70;58.50;;;;;;5095138;28;20094;-70
2021/04/04 11:26:36;;;;;;;13.25;1.98;;;16.70;58.50;;;;;;5098923;28;20432;-71
2021/04/04 11:29:11;;;;;;;7.55;1.85;;;16.70;58.40;;;;;;5097809;28;20071;-71
2021/04/04 11:31:38;;;;;;;14.70;2.00;;;16.70;58.30;;;;;;5097726;28;20036;-71
2021/04/04 11:34:30;;;;;;;7.78;1.70;;;16.80;58.40;;;;;;5088209;28;20046;-70
2021/04/04 11:37:23;;;;;;;15.13;1.80;;;16.80;58.10;;;;;;5098802;28;20048;-72
2021/04/04 11:40:17;;;;;;;5.45;1.38;;;16.90;58.10;;;;;;5093789;28;20048;-72
2021/04/04 11:42:47;;;;;;;9.60;1.58;;;17.00;57.90;;;;;;5098044;28;20039;-71
2021/04/04 11:45:13;;;;;;;8.32;2.15;;;17.10;57.70;;;;;;5088136;28;20059;-73
2021/04/04 11:47:40;;;;;;;5.88;1.70;;;17.10;55.60;;;;;;5093220;28;20336;-72
2021/04/04 11:50:23;;;;;;;8.95;1.70;;;17.00;57.30;;;;;;5098470;28;20052;-72
2021/04/04 11:52:49;;;;;;;8.25;2.08;;;17.10;57.10;;;;;;5097186;28;20070;-71
2021/04/04 11:55:17;;;;;;;11.07;2.10;;;17.00;55.20;;;;;;5096024;28;20052;-71
2021/04/04 11:57:45;;;;;;;8.82;1.70;;;17.10;56.60;;;;;;5092730;28;20118;-71
2021/04/04 12:00:14;;;;;;;6.57;1.45;;;17.20;56.50;;;;;;5089284;28;20374;-79
2021/04/04 12:03:01;;;;;;;9.88;1.50;;;17.30;56.30;;;;;;5078261;28;20048;-73
2021/04/04 12:05:34;;;;;;;7.38;2.00;;;17.40;56.10;;;;;;5093675;28;20040;-75
2021/04/04 12:08:01;;;;;;;5.27;1.47;;;17.40;56.00;;;;;;5097603;28;20051;-74
2021/04/04 12:10:30;;;;;;;4.97;1.13;;;17.40;55.80;;;;;;5098240;28;20046;-72
2021/04/04 12:12:57;;;;;;;6.68;1.40;;;17.50;55.70;;;;;;5098173;28;20379;-70
2021/04/04 12:15:25;;;;;;;10.35;1.52;;;17.60;55.50;;;;;;5097623;28;20065;-72
2021/04/04 12:17:56;;;;;;;4.70;1.30;;;17.60;55.30;;;;;;5097747;28;20397;-71
2021/04/04 12:20:33;;;;;;;6.70;1.05;;;17.70;55.20;;;;;;5097397;28;20419;-72
2021/04/04 12:23:00;;;;;;;5.63;1.55;;;17.70;55.10;;;;;;5097346;28;20062;-72
2021/04/04 12:25:28;;;;;;;6.32;1.05;;;17.70;55.20;;;;;;5097765;28;20451;-72
2021/04/04 12:27:57;;;;;;;7.93;1.65;;;17.70;55.10;;;;;;5097635;28;20350;-72
2021/04/04 12:30:34;;;;;;;5.70;2.15;;;17.70;54.90;;;;;;5098009;28;20119;-73
2021/04/04 12:33:05;;;;;;;9.20;1.35;;;17.80;54.70;;;;;;5097516;28;20124;-71
2021/04/04 12:35:32;;;;;;;7.45;1.90;;;17.80;54.50;;;;;;5098252;28;20458;-75
2021/04/04 12:37:59;;;;;;;12.32;2.13;;;17.80;54.50;;;;;;5097410;28;20392;-74
2021/04/04 12:40:25;;;;;;;4.97;1.48;;;17.80;54.40;;;;;;5097179;28;20092;-73
2021/04/04 12:43:00;;;;;;;5.35;1.67;;;17.80;54.40;;;;;;5097213;28;20070;-74
2021/04/04 12:45:35;;;;;;;8.68;2.38;;;17.80;54.30;;;;;;5097491;28;20047;-74
2021/04/04 12:48:02;;;;;;;5.93;1.63;;;17.80;54.20;;;;;;5096928;28;20046;-74
2021/04/04 12:50:28;;;;;;;6.57;1.83;;;17.90;54.20;;;;;;5096891;28;20116;-74
2021/04/04 12:52:55;;;;;;;10.05;2.85;;;17.90;54.10;;;;;;5084583;28;20051;-72
2021/04/04 12:55:31;;;;;;;12.50;2.47;;;17.70;55.80;;;;;;5082025;28;20047;-72
2021/04/04 12:58:03;;;;;;;5.38;2.13;;;17.50;56.50;;;;;;5097130;28;20048;-73
2021/04/04 13:00:43;;;;;;;9.40;2.35;;;17.30;56.20;;;;;;5092894;28;20138;-73
2021/04/04 13:03:10;;;;;;;6.38;2.15;;;17.30;56.30;;;;;;5089326;28;20044;-73
2021/04/04 13:05:49;;;;;;;7.50;2.78;;;17.40;55.90;;;;;;5096721;28;20048;-73
2021/04/04 13:08:25;;;;;;;7.50;2.58;;;17.50;55.70;;;;;;5096834;28;20044;-75
2021/04/04 13:10:54;;;;;;;5.22;2.63;;;17.60;55.30;;;;;;5096987;28;20032;-77
2021/04/04 13:13:22;;;;;;;8.93;3.08;;;17.60;55.40;;;;;;5096542;28;20351;-76